createdAt,value
2018-12-03T00:01:57.756Z,99071.33
2018-12-03T00:04:26.004Z,99059.92
2018-12-03T00:06:54.264Z,99049.63
2018-12-03T00:09:22.363Z,99062.65
2018-12-03T00:11:50.496Z,99066.13
2018-12-03T00:14:18.734Z,99087.73
2018-12-03T00:16:46.909Z,99077.32
2018-12-03T00:19:21.684Z,99071.61
2018-12-03T00:21:49.925Z,99065.91
2018-12-03T00:24:18.072Z,99070.53
2018-12-03T00:26:46.237Z,99072.88
2018-12-03T00:29:14.377Z,99072.39
2018-12-03T00:31:42.585Z,99069.78
2018-12-03T00:34:10.889Z,99066.69
2018-12-03T00:36:39.048Z,99056.27
2018-12-03T00:39:08.417Z,99058.13
2018-12-03T00:41:36.928Z,99053.17
2018-12-03T00:44:05.661Z,99050.31
2018-12-03T00:46:33.891Z,99043.74
2018-12-03T00:49:02.033Z,99057.38
2018-12-03T00:51:30.168Z,99064.33
2018-12-03T00:53:58.324Z,99066.56
2018-12-03T00:56:26.488Z,99080.20
2018-12-03T00:58:54.780Z,99075.77
2018-12-03T01:01:22.957Z,99076.11
2018-12-03T01:03:51.099Z,99088.39
2018-12-03T01:06:19.291Z,99085.66
2018-12-03T01:08:47.478Z,99095.58
2018-12-03T01:11:15.608Z,99104.91
2018-12-03T01:13:43.745Z,99116.81
2018-12-03T01:16:11.885Z,99125.36
2018-12-03T01:18:40.021Z,99133.83
2018-12-03T01:21:08.170Z,99155.27
2018-12-03T01:23:36.296Z,99159.11
2018-12-03T01:26:04.512Z,99150.45
2018-12-03T01:28:32.645Z,99139.66
2018-12-03T01:31:00.797Z,99131.98
2018-12-03T01:33:29.021Z,99113.38
2018-12-03T01:35:57.161Z,99104.20
2018-12-03T01:38:25.296Z,99097.02
2018-12-03T01:40:53.468Z,99097.39
2018-12-03T01:43:21.592Z,99088.71
2018-12-03T01:45:49.740Z,99086.48
2018-12-03T01:48:17.877Z,99091.94
2018-12-03T01:50:46.045Z,99095.65
2018-12-03T01:53:14.180Z,99088.58
2018-12-03T01:55:42.388Z,99082.41
2018-12-03T01:58:10.521Z,99085.64
2018-12-03T02:00:38.736Z,99089.23
2018-12-03T02:03:06.901Z,99089.23
2018-12-03T02:05:35.049Z,99098.28
2018-12-03T02:08:03.251Z,99108.81
2018-12-03T02:10:31.460Z,99111.78
2018-12-03T02:12:59.609Z,99092.44
2018-12-03T02:15:27.804Z,99093.09
2018-12-03T02:17:55.947Z,99103.35
2018-12-03T02:20:24.074Z,99103.61
2018-12-03T02:22:52.229Z,99102.61
2018-12-03T02:25:20.375Z,99098.77
2018-12-03T02:27:48.560Z,99104.22
2018-12-03T02:30:17.498Z,99099.14
2018-12-03T02:32:45.638Z,99099.14
2018-12-03T02:35:14.668Z,99085.13
2018-12-03T02:37:42.912Z,99092.32
2018-12-03T02:40:17.521Z,99082.52
2018-12-03T02:42:45.674Z,99084.41
2018-12-03T02:45:14.536Z,99085.03
2018-12-03T02:47:42.789Z,99099.41
2018-12-03T02:50:13.140Z,99095.33
2018-12-03T02:52:41.405Z,99095.66
2018-12-03T02:55:10.600Z,99093.95
2018-12-03T02:57:38.900Z,99106.23
2018-12-03T03:00:10.311Z,99100.41
2018-12-03T03:02:38.473Z,99093.70
2018-12-03T03:05:09.768Z,99087.38
2018-12-03T03:07:38.029Z,99082.92
2018-12-03T03:10:09.212Z,99090.11
2018-12-03T03:12:37.353Z,99089.86
2018-12-03T03:15:07.880Z,99092.95
2018-12-03T03:17:36.025Z,99093.83
2018-12-03T03:20:04.161Z,99088.38
2018-12-03T03:22:32.373Z,99088.25
2018-12-03T03:25:00.589Z,99087.63
2018-12-03T03:27:28.821Z,99085.39
2018-12-03T03:29:56.985Z,99077.22
2018-12-03T03:32:25.175Z,99075.36
2018-12-03T03:34:53.441Z,99076.34
2018-12-03T03:37:21.577Z,99070.40
2018-12-03T03:39:49.729Z,99074.48
2018-12-03T03:42:17.961Z,99069.03
2018-12-03T03:44:46.157Z,99073.00
2018-12-03T03:47:14.310Z,99076.84
2018-12-03T03:49:42.454Z,99079.72
2018-12-03T03:52:10.662Z,99071.91
2018-12-03T03:54:38.861Z,99059.98
2018-12-03T03:57:07.121Z,99063.95
2018-12-03T03:59:35.318Z,99048.95
2018-12-03T04:02:03.455Z,99049.33
2018-12-03T04:04:31.605Z,99046.11
2018-12-03T04:06:59.812Z,99036.94
2018-12-03T04:09:28.000Z,99031.24
2018-12-03T04:11:56.170Z,99030.09
2018-12-03T04:14:24.370Z,99036.79
2018-12-03T04:16:52.612Z,99044.73
2018-12-03T04:19:20.757Z,99052.41
2018-12-03T04:21:48.980Z,99042.88
2018-12-03T04:24:17.153Z,99044.08
2018-12-03T04:26:45.311Z,99037.14
2018-12-03T04:29:13.453Z,99062.05
2018-12-03T04:31:41.662Z,99065.28
2018-12-03T04:34:09.859Z,99068.03
2018-12-03T04:36:38.014Z,99078.45
2018-12-03T04:39:07.816Z,99087.27
2018-12-03T04:41:36.085Z,99089.23
2018-12-03T04:44:04.579Z,99081.08
2018-12-03T04:46:33.173Z,99077.44
2018-12-03T04:49:01.465Z,99077.59
2018-12-03T04:51:29.632Z,99083.66
2018-12-03T04:53:57.824Z,99081.05
2018-12-03T04:56:25.962Z,99069.28
2018-12-03T04:58:54.173Z,99064.20
2018-12-03T05:01:22.336Z,99062.84
2018-12-03T05:03:50.644Z,99081.80
2018-12-03T05:06:18.776Z,99088.34
2018-12-03T05:08:47.062Z,99101.48
2018-12-03T05:11:15.272Z,99116.97
2018-12-03T05:13:43.421Z,99133.10
2018-12-03T05:16:11.700Z,99150.94
2018-12-03T05:18:39.847Z,99176.47
2018-12-03T05:21:07.992Z,99207.44
2018-12-03T05:23:36.192Z,99154.78
2018-12-03T05:26:04.336Z,99169.03
2018-12-03T05:28:32.545Z,99173.70
2018-12-03T05:31:00.721Z,99170.61
2018-12-03T05:33:28.882Z,99168.61
2018-12-03T05:35:57.025Z,99159.91
2018-12-03T05:38:25.234Z,99166.22
2018-12-03T05:40:53.377Z,99161.38
2018-12-03T05:43:21.586Z,99148.02
2018-12-03T05:45:49.736Z,99132.06
2018-12-03T05:48:17.885Z,99123.37
2018-12-03T05:50:46.033Z,99129.94
2018-12-03T05:53:14.170Z,99138.87
2018-12-03T05:55:42.368Z,99143.19
2018-12-03T05:58:10.511Z,99143.94
2018-12-03T06:00:38.824Z,99141.86
2018-12-03T06:03:06.992Z,99160.05
2018-12-03T06:05:35.174Z,99151.35
2018-12-03T06:08:03.342Z,99128.95
2018-12-03T06:10:31.555Z,99136.75
2018-12-03T06:12:59.688Z,99145.79
2018-12-03T06:15:27.912Z,99151.73
2018-12-03T06:17:56.050Z,99162.84
2018-12-03T06:20:24.268Z,99171.02
2018-12-03T06:22:53.600Z,99188.11
2018-12-03T06:25:24.253Z,99183.53
2018-12-03T06:27:52.445Z,99192.69
2018-12-03T06:30:21.985Z,99189.58
2018-12-03T06:32:50.428Z,99176.84
2018-12-03T06:35:19.215Z,99180.55
2018-12-03T06:37:47.765Z,99177.44
2018-12-03T06:40:19.243Z,99160.22
2018-12-03T06:42:47.417Z,99155.00
2018-12-03T06:45:18.552Z,99155.60
2018-12-03T06:48:03.319Z,99162.55
2018-12-03T06:50:31.456Z,99162.52
2018-12-03T06:52:59.692Z,99149.39
2018-12-03T06:55:27.952Z,99156.95
2018-12-03T06:57:56.138Z,99145.09
2018-12-03T07:00:24.994Z,99133.92
2018-12-03T07:02:53.144Z,99148.02
2018-12-03T07:05:21.293Z,99160.45
2018-12-03T07:07:51.101Z,99162.45
2018-12-03T07:10:20.187Z,99169.60
2018-12-03T07:12:52.632Z,99162.61
2018-12-03T07:15:21.936Z,99169.30
2018-12-03T07:17:51.540Z,99171.80
2018-12-03T07:20:19.672Z,99170.44
2018-12-03T07:22:47.821Z,99177.48
2018-12-03T07:25:16.011Z,99178.51
2018-12-03T07:27:44.169Z,99177.76
2018-12-03T07:30:13.992Z,99184.72
2018-12-03T07:32:42.256Z,99189.80
2018-12-03T07:35:10.397Z,99186.36
2018-12-03T07:37:38.622Z,99185.72
2018-12-03T07:40:08.585Z,99179.94
2018-12-03T07:42:36.905Z,99181.42
2018-12-03T07:45:07.754Z,99177.98
2018-12-03T07:47:35.929Z,99181.34
2018-12-03T07:50:04.913Z,99180.70
2018-12-03T07:52:33.081Z,99193.61
2018-12-03T07:55:01.222Z,99189.64
2018-12-03T07:57:29.361Z,99182.83
2018-12-03T07:59:57.500Z,99191.27
2018-12-03T08:02:25.712Z,99187.67
2018-12-03T08:04:53.857Z,99186.95
2018-12-03T08:07:22.016Z,99187.06
2018-12-03T08:09:50.213Z,99190.43
2018-12-03T08:12:18.376Z,99192.92
2018-12-03T08:14:46.560Z,99189.82
2018-12-03T08:17:14.704Z,99188.72
2018-12-03T08:19:43.085Z,99181.79
2018-12-03T08:22:12.656Z,99188.72
2018-12-03T08:24:40.893Z,99183.00
2018-12-03T08:27:09.056Z,99189.84
2018-12-03T08:29:37.221Z,99187.23
2018-12-03T08:32:05.580Z,99198.14
2018-12-03T08:34:33.731Z,99201.13
2018-12-03T08:37:01.865Z,99206.09
2018-12-03T08:39:30.040Z,99200.63
2018-12-03T08:41:58.205Z,99203.36
2018-12-03T08:44:29.984Z,99206.09
2018-12-03T08:46:59.445Z,99204.34
2018-12-03T08:49:27.663Z,99195.80
2018-12-03T08:51:55.801Z,99196.66
2018-12-03T08:54:24.112Z,99193.67
2018-12-03T08:56:52.281Z,99190.48
2018-12-03T08:59:20.429Z,99198.65
2018-12-03T09:01:48.629Z,99200.98
2018-12-03T09:04:18.761Z,99198.81
2018-12-03T09:06:47.017Z,99192.97
2018-12-03T09:09:16.516Z,99192.13
2018-12-03T09:11:47.345Z,99194.08
2018-12-03T09:14:16.065Z,99193.09
2018-12-03T09:16:44.232Z,99191.72
2018-12-03T09:19:12.405Z,99180.17
2018-12-03T09:21:40.594Z,99189.08
2018-12-03T09:24:08.749Z,99184.83
2018-12-03T09:26:40.424Z,99181.98
2018-12-03T09:29:08.597Z,99188.43
2018-12-03T09:31:36.776Z,99191.66
2018-12-03T09:34:04.973Z,99190.55
2018-12-03T09:36:33.124Z,99197.12
2018-12-03T09:39:08.882Z,99198.21
2018-12-03T09:41:37.277Z,99188.94
2018-12-03T09:44:05.805Z,99189.41
2018-12-03T09:46:33.957Z,99184.45
2018-12-03T09:49:02.102Z,99201.67
2018-12-03T09:51:31.262Z,99190.84
2018-12-03T09:53:59.677Z,99188.23
2018-12-03T09:56:31.509Z,99185.66
2018-12-03T09:58:59.773Z,99192.86
2018-12-03T10:01:27.993Z,99185.50
2018-12-03T10:03:56.253Z,99191.83
2018-12-03T10:06:24.547Z,99195.44
2018-12-03T10:08:52.725Z,99182.94
2018-12-03T10:11:20.908Z,99179.70
2018-12-03T10:13:49.085Z,99176.88
2018-12-03T10:16:17.338Z,99180.47
2018-12-03T10:18:48.273Z,99186.20
2018-12-03T10:21:16.462Z,99179.38
2018-12-03T10:23:44.748Z,99181.27
2018-12-03T10:26:14.043Z,99181.27
2018-12-03T10:28:42.300Z,99169.82
2018-12-03T10:31:13.760Z,99169.82
2018-12-03T10:33:42.037Z,99158.31
2018-12-03T10:36:10.941Z,99158.31
2018-12-03T10:38:41.056Z,99149.76
2018-12-03T10:41:17.530Z,99151.86
2018-12-03T10:43:45.704Z,99159.31
2018-12-03T10:46:13.892Z,99162.92
2018-12-03T10:48:42.087Z,99158.84
2018-12-03T10:51:14.344Z,99156.09
2018-12-03T10:53:42.613Z,99151.04
2018-12-03T10:56:10.892Z,99122.89
2018-12-03T10:58:42.116Z,99098.83
2018-12-03T11:01:15.781Z,99055.68
2018-12-03T11:03:49.534Z,99105.67
2018-12-03T11:06:18.885Z,99126.26
2018-12-03T11:08:47.433Z,99121.32
2018-12-03T11:11:15.692Z,99114.00
2018-12-03T11:13:43.872Z,99111.41
2018-12-03T11:16:21.768Z,99113.38
2018-12-03T11:18:51.868Z,99113.28
2018-12-03T11:21:20.060Z,99100.75
2018-12-03T11:23:48.345Z,99083.41
2018-12-03T11:26:16.526Z,99083.03
2018-12-03T11:28:47.366Z,99087.73
2018-12-03T11:31:22.070Z,99092.32
2018-12-03T11:33:50.361Z,99110.66
2018-12-03T11:36:24.437Z,99118.23
2018-12-03T11:39:01.117Z,99114.13
2018-12-03T11:41:29.520Z,99125.16
2018-12-03T11:43:57.798Z,99129.77
2018-12-03T11:46:25.985Z,99132.61
2018-12-03T11:48:54.189Z,99120.62
2018-12-03T11:51:22.401Z,99132.39
2018-12-03T11:53:50.593Z,99137.69
2018-12-03T11:56:18.877Z,99141.17
2018-12-03T11:58:47.068Z,99139.82
2018-12-03T12:01:15.331Z,99132.73
2018-12-03T12:03:44.141Z,99144.88
2018-12-03T12:06:12.393Z,99144.64
2018-12-03T12:08:40.679Z,99139.78
2018-12-03T12:11:08.924Z,99137.93
2018-12-03T12:13:37.121Z,99138.30
2018-12-03T12:16:05.916Z,99137.93
2018-12-03T12:18:34.221Z,99141.90
2018-12-03T12:21:02.510Z,99153.68
2018-12-03T12:23:30.773Z,99138.68
2018-12-03T12:25:59.021Z,99147.73
2018-12-03T12:28:27.205Z,99136.94
2018-12-03T12:30:55.469Z,99136.23
2018-12-03T12:33:23.741Z,99139.19
2018-12-03T12:35:52.041Z,99129.65
2018-12-03T12:38:20.228Z,99120.11
2018-12-03T12:40:48.473Z,99128.90
2018-12-03T12:43:16.748Z,99133.11
2018-12-03T12:45:53.597Z,99126.19
2018-12-03T12:48:21.793Z,99134.69
2018-12-03T12:50:49.993Z,99133.10
2018-12-03T12:53:18.169Z,99149.95
2018-12-03T12:55:46.433Z,99172.00
2018-12-03T12:58:14.698Z,99175.84
2018-12-03T13:00:42.997Z,99161.72
2018-12-03T13:03:11.272Z,99162.45
2018-12-03T13:05:39.581Z,99157.01
2018-12-03T13:08:08.945Z,99148.69
2018-12-03T13:10:37.377Z,99155.73
2018-12-03T13:13:05.788Z,99153.88
2018-12-03T13:15:34.045Z,99131.10
2018-12-03T13:18:03.853Z,99105.72
2018-12-03T13:20:32.005Z,99071.29
2018-12-03T13:23:00.229Z,99056.05
2018-12-03T13:25:28.385Z,99072.55
2018-12-03T13:27:56.528Z,99075.11
2018-12-03T13:30:24.689Z,99078.37
2018-12-03T13:32:52.857Z,99070.53
2018-12-03T13:35:21.020Z,99065.73
2018-12-03T13:37:49.177Z,99068.20
2018-12-03T13:40:17.844Z,99069.56
2018-12-03T13:42:47.061Z,99071.79
2018-12-03T13:45:18.356Z,99118.09
2018-12-03T13:47:46.806Z,99138.15
2018-12-03T13:50:16.165Z,99110.91
2018-12-03T13:52:44.976Z,99104.72
2018-12-03T13:55:16.713Z,99104.94
2018-12-03T13:57:44.881Z,99100.59
2018-12-03T14:00:19.321Z,99097.27
2018-12-03T14:02:50.305Z,99105.41
2018-12-03T14:05:18.973Z,99115.69
2018-12-03T14:07:54.317Z,99133.27
2018-12-03T14:10:59.457Z,99114.21
2018-12-03T14:14:09.984Z,99115.19
2018-12-03T14:16:46.060Z,99104.03
2018-12-03T14:19:18.013Z,99097.58
2018-12-03T14:21:50.197Z,99092.39
2018-12-03T14:24:20.696Z,99110.34
2018-12-03T14:26:49.058Z,99089.90
2018-12-03T14:29:17.200Z,99092.02
2018-12-03T14:31:45.402Z,99083.36
2018-12-03T14:34:18.225Z,99077.31
2018-12-03T14:36:46.454Z,99068.39
2018-12-03T14:39:14.641Z,99054.66
2018-12-03T14:41:42.895Z,99058.14
2018-12-03T14:44:11.265Z,99065.55
2018-12-03T14:46:39.449Z,99070.50
2018-12-03T14:49:07.644Z,99060.86
2018-12-03T14:51:35.776Z,99060.25
2018-12-03T14:54:03.987Z,99065.09
2018-12-03T14:56:32.168Z,99070.02
2018-12-03T14:59:00.425Z,99075.98
2018-12-03T15:01:28.660Z,99063.95
2018-12-03T15:03:56.884Z,99055.79
2018-12-03T15:06:25.025Z,99060.25
2018-12-03T15:08:53.633Z,99064.71
2018-12-03T15:11:21.825Z,99070.53
2018-12-03T15:13:50.014Z,99069.41
2018-12-03T15:16:18.173Z,99072.50
2018-12-03T15:18:46.328Z,99058.52
2018-12-03T15:21:14.481Z,99049.70
2018-12-03T15:23:42.689Z,99045.02
2018-12-03T15:26:10.833Z,99049.22
2018-12-03T15:28:39.028Z,99045.97
2018-12-03T15:31:07.208Z,99057.42
2018-12-03T15:33:35.497Z,99053.83
2018-12-03T15:36:03.660Z,99042.45
2018-12-03T15:38:31.817Z,99052.28
2018-12-03T15:41:00.005Z,99058.97
2018-12-03T15:43:28.281Z,99052.55
2018-12-03T15:45:56.429Z,99057.49
2018-12-03T15:48:24.613Z,99052.39
2018-12-03T15:50:52.768Z,99034.09
2018-12-03T15:53:21.344Z,99031.87
2018-12-03T15:55:50.040Z,99025.18
2018-12-03T15:58:18.246Z,99010.59
2018-12-03T16:00:46.413Z,99030.02
2018-12-03T16:03:14.629Z,99078.51
2018-12-03T16:05:42.790Z,99069.67
2018-12-03T16:08:10.955Z,99053.83
2018-12-03T16:10:39.134Z,99053.83
2018-12-03T16:13:07.308Z,99052.84
2018-12-03T16:15:35.489Z,99061.50
2018-12-03T16:18:03.661Z,99041.47
2018-12-03T16:20:31.857Z,99035.16
2018-12-03T16:23:00.117Z,99018.83
2018-12-03T16:25:28.317Z,99016.56
2018-12-03T16:27:56.474Z,99001.11
2018-12-03T16:30:25.234Z,99012.20
2018-12-03T16:32:54.501Z,99011.94
2018-12-03T16:35:22.654Z,99011.44
2018-12-03T16:37:50.793Z,99018.09
2018-12-03T16:40:19.029Z,99018.34
2018-12-03T16:42:47.144Z,99017.86
2018-12-03T16:45:15.444Z,99009.81
2018-12-03T16:47:43.596Z,99016.28
2018-12-03T16:50:11.790Z,99006.88
2018-12-03T16:52:39.953Z,98998.50
2018-12-03T16:55:08.130Z,98988.22
2018-12-03T16:57:36.299Z,98983.49
2018-12-03T17:00:08.293Z,98989.69
2018-12-03T17:02:36.436Z,98997.84
2018-12-03T17:05:04.729Z,98999.41
2018-12-03T17:07:32.880Z,98981.36
2018-12-03T17:10:01.028Z,98997.77
2018-12-03T17:12:30.037Z,99009.45
2018-12-03T17:14:58.185Z,99012.06
2018-12-03T17:17:26.533Z,98993.52
2018-12-03T17:19:54.684Z,99001.66
2018-12-03T17:22:34.641Z,99019.77
2018-12-03T17:25:03.384Z,99056.02
2018-12-03T17:27:31.606Z,99029.34
2018-12-03T17:29:59.766Z,99025.00
2018-12-03T17:32:28.056Z,99024.67
2018-12-03T17:34:56.217Z,99001.59
2018-12-03T17:37:24.373Z,98972.20
2018-12-03T17:39:52.576Z,98958.51
2018-12-03T17:42:20.731Z,98941.48
2018-12-03T17:44:48.872Z,98930.99
2018-12-03T17:47:17.113Z,98931.83
2018-12-03T17:49:45.400Z,98931.98
2018-12-03T17:52:13.660Z,98927.52
2018-12-03T17:54:41.824Z,98919.86
2018-12-03T17:57:10.006Z,98913.28
2018-12-03T17:59:38.152Z,98900.19
2018-12-03T18:02:06.361Z,98893.66
2018-12-03T18:04:34.620Z,98900.23
2018-12-03T18:07:02.805Z,98901.44
2018-12-03T18:09:31.080Z,98902.45
2018-12-03T18:11:59.268Z,98905.17
2018-12-03T18:14:27.425Z,98899.36
2018-12-03T18:16:55.573Z,98907.52
2018-12-03T18:19:23.876Z,98908.49
2018-12-03T18:21:52.040Z,98912.80
2018-12-03T18:24:21.920Z,98926.98
2018-12-03T18:26:50.112Z,98934.53
2018-12-03T18:29:18.260Z,98932.20
2018-12-03T18:31:46.418Z,98931.98
2018-12-03T18:34:14.688Z,98931.33
2018-12-03T18:36:42.832Z,98938.88
2018-12-03T18:39:11.145Z,98941.94
2018-12-03T18:41:39.309Z,98951.21
2018-12-03T18:44:07.492Z,98943.92
2018-12-03T18:46:35.629Z,98953.94
2018-12-03T18:49:08.245Z,98962.09
2018-12-03T18:51:36.429Z,98964.97
2018-12-03T18:54:04.805Z,98961.88
2018-12-03T18:56:32.953Z,98968.51
2018-12-03T18:59:03.264Z,98984.81
2018-12-03T19:01:31.570Z,98985.09
2018-12-03T19:04:00.021Z,98992.98
2018-12-03T19:06:28.801Z,98994.61
2018-12-03T19:08:57.117Z,99004.02
2018-12-03T19:11:25.502Z,99005.76
2018-12-03T19:13:54.153Z,99008.20
2018-12-03T19:16:22.457Z,99013.27
2018-12-03T19:18:50.802Z,99017.59
2018-12-03T19:21:18.970Z,99022.76
2018-12-03T19:23:47.299Z,99027.05
2018-12-03T19:26:15.449Z,99031.51
2018-12-03T19:28:43.890Z,99031.20
2018-12-03T19:31:43.140Z,99026.83
2018-12-03T19:34:11.324Z,99029.44
2018-12-03T19:36:39.516Z,99010.91
2018-12-03T19:39:08.089Z,99014.60
2018-12-03T19:41:36.243Z,99012.97
2018-12-03T19:44:04.644Z,99011.13
2018-12-03T19:46:32.814Z,99004.82
2018-12-03T19:49:01.600Z,99009.87
2018-12-03T19:51:29.877Z,99012.10
2018-12-03T19:53:58.457Z,99004.82
2018-12-03T19:56:26.870Z,99012.59
2018-12-03T19:58:55.937Z,99015.69
2018-12-03T20:01:24.105Z,99020.02
2018-12-03T20:03:52.300Z,99028.98
2018-12-03T20:06:20.557Z,99032.58
2018-12-03T20:08:48.732Z,99025.89
2018-12-03T20:11:17.220Z,99042.58
2018-12-03T20:13:45.585Z,99046.44
2018-12-03T20:16:13.883Z,99046.03
2018-12-03T20:18:42.181Z,99056.73
2018-12-03T20:21:13.613Z,99052.77
2018-12-03T20:23:45.969Z,99071.30
2018-12-03T20:26:30.598Z,99086.30
2018-12-03T20:29:13.792Z,99095.13
2018-12-03T20:31:53.981Z,99106.55
2018-12-03T20:34:32.861Z,99128.39
2018-12-03T20:37:16.411Z,99127.52
2018-12-03T20:39:54.892Z,99139.26
2018-12-03T20:42:25.705Z,99144.31
2018-12-03T20:45:17.171Z,99151.48
2018-12-03T20:47:48.601Z,99157.79
2018-12-03T20:50:23.933Z,99155.56
2018-12-03T20:52:52.580Z,99138.11
2018-12-03T20:55:27.440Z,99127.52
2018-12-03T20:57:55.749Z,99140.13
2018-12-03T21:00:24.241Z,99146.81
2018-12-03T21:02:55.857Z,99148.80
2018-12-03T21:05:24.177Z,99157.06
2018-12-03T21:07:52.420Z,99153.86
2018-12-03T21:10:20.621Z,99165.00
2018-12-03T21:12:48.776Z,99172.56
2018-12-03T21:15:16.953Z,99176.05
2018-12-03T21:17:45.136Z,99191.72
2018-12-03T21:20:20.881Z,99200.26
2018-12-03T21:22:49.064Z,99203.36
2018-12-03T21:25:17.299Z,99208.20
2018-12-03T21:27:45.521Z,99213.05
2018-12-03T21:30:13.803Z,99220.19
2018-12-03T21:32:41.956Z,99235.14
2018-12-03T21:35:10.241Z,99244.30
2018-12-03T21:37:38.420Z,99240.81
2018-12-03T21:40:08.229Z,99256.73
2018-12-03T21:42:36.760Z,99264.11
2018-12-03T21:45:06.254Z,99268.19
2018-12-03T21:47:34.540Z,99276.73
2018-12-03T21:50:05.841Z,99281.19
2018-12-03T21:52:33.128Z,99280.59
2018-12-03T21:55:02.230Z,99294.44
2018-12-03T21:57:31.004Z,99296.18
2018-12-03T21:59:59.357Z,99302.48
2018-12-03T22:02:27.590Z,99306.95
2018-12-03T22:04:55.828Z,99297.54
2018-12-03T22:07:24.216Z,99313.74
2018-12-03T22:09:52.919Z,99334.12
2018-12-03T22:12:21.277Z,99331.41
2018-12-03T22:14:49.445Z,99331.89
2018-12-03T22:17:18.053Z,99342.77
2018-12-03T22:19:46.205Z,99340.53
2018-12-03T22:22:14.510Z,99337.43
2018-12-03T22:24:42.970Z,99336.31
2018-12-03T22:27:11.240Z,99346.80
2018-12-03T22:29:39.648Z,99341.36
2018-12-03T22:32:08.009Z,99351.84
2018-12-03T22:34:36.173Z,99346.41
2018-12-03T22:37:04.456Z,99351.84
2018-12-03T22:39:32.613Z,99353.69
2018-12-03T22:42:00.916Z,99355.05
2018-12-03T22:44:29.171Z,99358.73
2018-12-03T22:46:57.345Z,99361.73
2018-12-03T22:49:25.542Z,99366.20
2018-12-03T22:51:53.696Z,99364.36
2018-12-03T22:54:21.890Z,99363.09
2018-12-03T22:56:50.493Z,99365.53
2018-12-03T22:59:18.757Z,99366.79
2018-12-03T23:01:47.025Z,99374.84
2018-12-03T23:04:15.200Z,99380.28
2018-12-03T23:06:43.477Z,99382.99
2018-12-03T23:09:11.657Z,99389.89
2018-12-03T23:11:39.888Z,99391.63
2018-12-03T23:14:08.226Z,99382.27
2018-12-03T23:16:36.368Z,99384.84
2018-12-03T23:19:04.669Z,99386.63
2018-12-03T23:21:32.924Z,99396.49
2018-12-03T23:24:01.245Z,99394.39
2018-12-03T23:26:29.576Z,99396.63
2018-12-03T23:28:57.733Z,99403.77
2018-12-03T23:31:25.924Z,99399.20
2018-12-03T23:33:54.113Z,99404.45
2018-12-03T23:36:22.497Z,99399.20
2018-12-03T23:38:50.672Z,99403.77
2018-12-03T23:41:19.034Z,99410.85
2018-12-03T23:43:47.341Z,99411.83
2018-12-03T23:46:15.594Z,99408.72
2018-12-03T23:48:43.784Z,99416.88
2018-12-03T23:51:15.321Z,99411.83
2018-12-03T23:53:43.504Z,99419.88
2018-12-03T23:56:11.777Z,99417.65
2018-12-03T23:58:39.945Z,99418.13
